sensor_id;sensor_type;location;lat;lon;timestamp;temperature;humidity
14985;DHT22;7588;62.368;25.902;2023-04-06T00:01:27;-4.50;99.90
14985;DHT22;7588;62.368;25.902;2023-04-06T00:03:53;-4.50;99.90
14985;DHT22;7588;62.368;25.902;2023-04-06T00:06:18;-4.50;99.90
14985;DHT22;7588;62.368;25.902;2023-04-06T00:08:44;-4.50;99.90
14985;DHT22;7588;62.368;25.902;2023-04-06T00:11:10;-4.50;99.90
14985;DHT22;7588;62.368;25.902;2023-04-06T00:13:36;-4.50;99.90
14985;DHT22;7588;62.368;25.902;2023-04-06T00:16:01;-4.50;99.90
14985;DHT22;7588;62.368;25.902;2023-04-06T00:18:27;-4.60;99.90
14985;DHT22;7588;62.368;25.902;2023-04-06T00:20:53;-4.60;99.90
14985;DHT22;7588;62.368;25.902;2023-04-06T00:23:18;-4.60;99.90
14985;DHT22;7588;62.368;25.902;2023-04-06T00:25:44;-4.70;99.90
14985;DHT22;7588;62.368;25.902;2023-04-06T00:28:10;-4.70;99.90
14985;DHT22;7588;62.368;25.902;2023-04-06T00:30:35;-4.70;99.90
14985;DHT22;7588;62.368;25.902;2023-04-06T00:33:01;-4.70;99.90
14985;DHT22;7588;62.368;25.902;2023-04-06T00:35:27;-4.80;99.90
14985;DHT22;7588;62.368;25.902;2023-04-06T00:37:52;-4.80;99.90
14985;DHT22;7588;62.368;25.902;2023-04-06T00:40:18;-4.80;99.90
14985;DHT22;7588;62.368;25.902;2023-04-06T00:42:44;-4.90;99.90
14985;DHT22;7588;62.368;25.902;2023-04-06T00:45:10;-4.90;99.90
14985;DHT22;7588;62.368;25.902;2023-04-06T00:47:36;-4.90;99.90
14985;DHT22;7588;62.368;25.902;2023-04-06T00:50:01;-4.90;99.90
14985;DHT22;7588;62.368;25.902;2023-04-06T00:52:27;-4.90;99.90
14985;DHT22;7588;62.368;25.902;2023-04-06T00:54:53;-4.90;99.90
14985;DHT22;7588;62.368;25.902;2023-04-06T00:57:19;-4.90;99.90
14985;DHT22;7588;62.368;25.902;2023-04-06T00:59:45;-4.80;99.90
14985;DHT22;7588;62.368;25.902;2023-04-06T01:02:11;-4.90;99.90
14985;DHT22;7588;62.368;25.902;2023-04-06T01:04:37;-4.90;99.90
14985;DHT22;7588;62.368;25.902;2023-04-06T01:07:03;-4.90;99.90
14985;DHT22;7588;62.368;25.902;2023-04-06T01:09:29;-5.00;99.90
14985;DHT22;7588;62.368;25.902;2023-04-06T01:11:56;-5.00;99.90
14985;DHT22;7588;62.368;25.902;2023-04-06T01:14:22;-5.00;99.90
14985;DHT22;7588;62.368;25.902;2023-04-06T01:16:48;-5.10;99.90
14985;DHT22;7588;62.368;25.902;2023-04-06T01:19:14;-5.20;99.90
14985;DHT22;7588;62.368;25.902;2023-04-06T01:21:40;-5.20;99.90
14985;DHT22;7588;62.368;25.902;2023-04-06T01:24:07;-5.10;99.90
14985;DHT22;7588;62.368;25.902;2023-04-06T01:26:34;-5.20;99.90
14985;DHT22;7588;62.368;25.902;2023-04-06T01:29:00;-5.30;99.90
14985;DHT22;7588;62.368;25.902;2023-04-06T01:31:27;-5.30;99.90
14985;DHT22;7588;62.368;25.902;2023-04-06T01:33:53;-5.30;99.90
14985;DHT22;7588;62.368;25.902;2023-04-06T01:36:19;-5.30;99.90
14985;DHT22;7588;62.368;25.902;2023-04-06T01:38:45;-5.30;99.90
14985;DHT22;7588;62.368;25.902;2023-04-06T01:41:11;-5.30;99.90
14985;DHT22;7588;62.368;25.902;2023-04-06T01:43:37;-5.30;99.90
14985;DHT22;7588;62.368;25.902;2023-04-06T01:46:02;-5.30;99.90
14985;DHT22;7588;62.368;25.902;2023-04-06T01:48:28;-5.30;99.90
14985;DHT22;7588;62.368;25.902;2023-04-06T01:50:54;-5.30;99.90
14985;DHT22;7588;62.368;25.902;2023-04-06T01:53:21;-5.40;99.90
14985;DHT22;7588;62.368;25.902;2023-04-06T01:55:46;-5.40;99.90
14985;DHT22;7588;62.368;25.902;2023-04-06T01:58:12;-5.40;99.90
14985;DHT22;7588;62.368;25.902;2023-04-06T02:00:39;-5.40;99.90
14985;DHT22;7588;62.368;25.902;2023-04-06T02:03:04;-5.50;99.90
14985;DHT22;7588;62.368;25.902;2023-04-06T02:05:31;-5.50;99.90
14985;DHT22;7588;62.368;25.902;2023-04-06T02:07:58;-5.50;99.90
14985;DHT22;7588;62.368;25.902;2023-04-06T02:10:24;-5.50;99.90
14985;DHT22;7588;62.368;25.902;2023-04-06T02:12:50;-5.50;99.90
14985;DHT22;7588;62.368;25.902;2023-04-06T02:15:16;-5.50;99.90
14985;DHT22;7588;62.368;25.902;2023-04-06T02:17:42;-5.50;99.90
14985;DHT22;7588;62.368;25.902;2023-04-06T02:20:08;-5.60;99.90
14985;DHT22;7588;62.368;25.902;2023-04-06T02:22:35;-5.60;99.90
14985;DHT22;7588;62.368;25.902;2023-04-06T02:25:00;-5.60;99.90
14985;DHT22;7588;62.368;25.902;2023-04-06T02:27:26;-5.60;99.90
14985;DHT22;7588;62.368;25.902;2023-04-06T02:29:52;-5.60;99.90
14985;DHT22;7588;62.368;25.902;2023-04-06T02:32:18;-5.70;99.90
14985;DHT22;7588;62.368;25.902;2023-04-06T02:34:43;-5.60;99.90
14985;DHT22;7588;62.368;25.902;2023-04-06T02:37:09;-5.60;99.90
14985;DHT22;7588;62.368;25.902;2023-04-06T02:39:35;-5.70;99.90
14985;DHT22;7588;62.368;25.902;2023-04-06T02:42:01;-5.70;99.90
14985;DHT22;7588;62.368;25.902;2023-04-06T02:44:26;-5.80;99.90
14985;DHT22;7588;62.368;25.902;2023-04-06T02:46:52;-5.80;99.90
14985;DHT22;7588;62.368;25.902;2023-04-06T02:49:18;-5.80;99.90
14985;DHT22;7588;62.368;25.902;2023-04-06T02:51:44;-5.80;99.90
14985;DHT22;7588;62.368;25.902;2023-04-06T02:54:09;-5.80;99.90
14985;DHT22;7588;62.368;25.902;2023-04-06T02:56:35;-5.80;99.90
14985;DHT22;7588;62.368;25.902;2023-04-06T02:59:01;-5.90;99.90
14985;DHT22;7588;62.368;25.902;2023-04-06T03:01:26;-5.80;99.90
14985;DHT22;7588;62.368;25.902;2023-04-06T03:03:52;-5.80;99.90
14985;DHT22;7588;62.368;25.902;2023-04-06T03:06:18;-5.80;99.90
14985;DHT22;7588;62.368;25.902;2023-04-06T03:08:43;-5.80;99.90
14985;DHT22;7588;62.368;25.902;2023-04-06T03:11:09;-5.80;99.90
14985;DHT22;7588;62.368;25.902;2023-04-06T03:13:36;-5.80;99.90
14985;DHT22;7588;62.368;25.902;2023-04-06T03:16:04;-5.80;99.90
14985;DHT22;7588;62.368;25.902;2023-04-06T03:18:30;-5.90;99.90
14985;DHT22;7588;62.368;25.902;2023-04-06T03:20:56;-5.90;99.90
14985;DHT22;7588;62.368;25.902;2023-04-06T03:23:21;-5.90;99.90
14985;DHT22;7588;62.368;25.902;2023-04-06T03:25:47;-5.90;99.90
14985;DHT22;7588;62.368;25.902;2023-04-06T03:28:13;-5.90;99.90
14985;DHT22;7588;62.368;25.902;2023-04-06T03:30:39;-5.90;99.90
14985;DHT22;7588;62.368;25.902;2023-04-06T03:33:04;-5.90;99.90
14985;DHT22;7588;62.368;25.902;2023-04-06T03:35:30;-6.00;99.90
14985;DHT22;7588;62.368;25.902;2023-04-06T03:37:56;-6.00;99.90
14985;DHT22;7588;62.368;25.902;2023-04-06T03:40:21;-6.00;99.90
14985;DHT22;7588;62.368;25.902;2023-04-06T03:42:47;-6.00;99.90
14985;DHT22;7588;62.368;25.902;2023-04-06T03:45:12;-6.00;99.90
14985;DHT22;7588;62.368;25.902;2023-04-06T03:47:39;-6.00;99.90
14985;DHT22;7588;62.368;25.902;2023-04-06T03:50:05;-6.00;99.90
14985;DHT22;7588;62.368;25.902;2023-04-06T03:52:31;-6.00;99.90
14985;DHT22;7588;62.368;25.902;2023-04-06T03:54:57;-6.00;99.90
14985;DHT22;7588;62.368;25.902;2023-04-06T03:57:22;-5.90;99.90
14985;DHT22;7588;62.368;25.902;2023-04-06T03:59:48;-5.90;99.90
14985;DHT22;7588;62.368;25.902;2023-04-06T04:02:14;-5.90;99.90
14985;DHT22;7588;62.368;25.902;2023-04-06T04:04:40;-5.90;99.90
14985;DHT22;7588;62.368;25.902;2023-04-06T04:07:05;-5.90;99.90
14985;DHT22;7588;62.368;25.902;2023-04-06T04:09:31;-5.90;99.90
14985;DHT22;7588;62.368;25.902;2023-04-06T04:11:57;-5.80;99.90
14985;DHT22;7588;62.368;25.902;2023-04-06T04:14:22;-5.80;99.90
14985;DHT22;7588;62.368;25.902;2023-04-06T05:03:07;-4.50;99.90
14985;DHT22;7588;62.368;25.902;2023-04-06T05:05:32;-4.40;99.90
14985;DHT22;7588;62.368;25.902;2023-04-06T05:07:58;-4.40;99.90
14985;DHT22;7588;62.368;25.902;2023-04-06T05:10:24;-4.20;99.90
14985;DHT22;7588;62.368;25.902;2023-04-06T05:12:50;-4.10;99.90
14985;DHT22;7588;62.368;25.902;2023-04-06T05:15:16;-4.00;99.90
14985;DHT22;7588;62.368;25.902;2023-04-06T05:17:42;-3.90;99.90
14985;DHT22;7588;62.368;25.902;2023-04-06T05:20:07;-3.70;99.90
14985;DHT22;7588;62.368;25.902;2023-04-06T05:22:33;-3.60;99.90
14985;DHT22;7588;62.368;25.902;2023-04-06T05:24:59;-3.50;99.90
14985;DHT22;7588;62.368;25.902;2023-04-06T05:27:24;-3.40;99.90
14985;DHT22;7588;62.368;25.902;2023-04-06T05:29:50;-3.30;99.90
14985;DHT22;7588;62.368;25.902;2023-04-06T05:32:16;-3.10;99.90
14985;DHT22;7588;62.368;25.902;2023-04-06T05:34:42;-3.00;99.90
14985;DHT22;7588;62.368;25.902;2023-04-06T05:37:07;-2.90;99.90
14985;DHT22;7588;62.368;25.902;2023-04-06T05:39:33;-2.70;99.90
14985;DHT22;7588;62.368;25.902;2023-04-06T05:42:03;-2.60;99.90
14985;DHT22;7588;62.368;25.902;2023-04-06T05:44:29;-2.50;99.90
14985;DHT22;7588;62.368;25.902;2023-04-06T05:46:55;-2.40;99.90
14985;DHT22;7588;62.368;25.902;2023-04-06T05:49:20;-2.30;99.90
14985;DHT22;7588;62.368;25.902;2023-04-06T05:51:46;-2.20;99.90
14985;DHT22;7588;62.368;25.902;2023-04-06T05:54:11;-2.00;99.90
14985;DHT22;7588;62.368;25.902;2023-04-06T05:56:37;-1.90;99.90
14985;DHT22;7588;62.368;25.902;2023-04-06T05:59:03;-1.70;99.90
14985;DHT22;7588;62.368;25.902;2023-04-06T06:01:28;-1.50;99.90
14985;DHT22;7588;62.368;25.902;2023-04-06T06:03:54;-1.30;99.90
14985;DHT22;7588;62.368;25.902;2023-04-06T06:06:20;-1.10;99.90
14985;DHT22;7588;62.368;25.902;2023-04-06T06:08:45;-1.00;99.90
14985;DHT22;7588;62.368;25.902;2023-04-06T06:11:11;-0.80;99.90
14985;DHT22;7588;62.368;25.902;2023-04-06T06:13:37;-0.70;99.90
14985;DHT22;7588;62.368;25.902;2023-04-06T06:16:03;-0.60;99.90
14985;DHT22;7588;62.368;25.902;2023-04-06T06:18:30;-0.50;99.90
14985;DHT22;7588;62.368;25.902;2023-04-06T06:20:56;-0.30;99.90
14985;DHT22;7588;62.368;25.902;2023-04-06T06:23:22;-0.20;99.90
14985;DHT22;7588;62.368;25.902;2023-04-06T06:25:47;0.00;99.90
14985;DHT22;7588;62.368;25.902;2023-04-06T06:28:13;0.20;99.90
14985;DHT22;7588;62.368;25.902;2023-04-06T06:30:39;0.30;99.90
14985;DHT22;7588;62.368;25.902;2023-04-06T06:33:05;0.50;99.90
14985;DHT22;7588;62.368;25.902;2023-04-06T06:35:30;0.60;99.90
14985;DHT22;7588;62.368;25.902;2023-04-06T06:37:56;0.70;99.90
14985;DHT22;7588;62.368;25.902;2023-04-06T06:40:22;0.80;99.90
14985;DHT22;7588;62.368;25.902;2023-04-06T06:42:49;0.90;99.90
14985;DHT22;7588;62.368;25.902;2023-04-06T06:45:16;1.20;99.90
14985;DHT22;7588;62.368;25.902;2023-04-06T06:47:42;1.30;99.90
14985;DHT22;7588;62.368;25.902;2023-04-06T06:50:08;1.40;99.90
14985;DHT22;7588;62.368;25.902;2023-04-06T06:52:33;1.70;99.90
14985;DHT22;7588;62.368;25.902;2023-04-06T06:54:59;1.80;99.90
14985;DHT22;7588;62.368;25.902;2023-04-06T06:57:26;2.00;99.90
14985;DHT22;7588;62.368;25.902;2023-04-06T06:59:51;2.20;99.90
14985;DHT22;7588;62.368;25.902;2023-04-06T07:02:17;2.40;99.90
14985;DHT22;7588;62.368;25.902;2023-04-06T07:04:43;3.20;99.90
14985;DHT22;7588;62.368;25.902;2023-04-06T07:07:09;4.40;99.90
14985;DHT22;7588;62.368;25.902;2023-04-06T07:09:35;5.20;99.60
14985;DHT22;7588;62.368;25.902;2023-04-06T07:12:01;6.00;97.80
14985;DHT22;7588;62.368;25.902;2023-04-06T07:14:27;6.70;96.10
14985;DHT22;7588;62.368;25.902;2023-04-06T07:16:53;7.30;94.70
14985;DHT22;7588;62.368;25.902;2023-04-06T07:19:18;7.50;93.50
14985;DHT22;7588;62.368;25.902;2023-04-06T07:21:44;7.90;92.30
14985;DHT22;7588;62.368;25.902;2023-04-06T07:24:10;8.30;92.30
14985;DHT22;7588;62.368;25.902;2023-04-06T07:26:35;8.50;91.90
14985;DHT22;7588;62.368;25.902;2023-04-06T07:29:01;8.50;92.10
14985;DHT22;7588;62.368;25.902;2023-04-06T07:31:27;8.60;91.90
14985;DHT22;7588;62.368;25.902;2023-04-06T07:33:52;8.60;91.50
14985;DHT22;7588;62.368;25.902;2023-04-06T07:36:20;8.90;90.90
14985;DHT22;7588;62.368;25.902;2023-04-06T07:38:46;8.90;91.30
14985;DHT22;7588;62.368;25.902;2023-04-06T07:41:11;9.30;90.00
14985;DHT22;7588;62.368;25.902;2023-04-06T07:43:37;9.60;90.10
14985;DHT22;7588;62.368;25.902;2023-04-06T07:46:03;9.60;87.80
14985;DHT22;7588;62.368;25.902;2023-04-06T07:48:29;9.70;86.50
14985;DHT22;7588;62.368;25.902;2023-04-06T07:51:04;9.70;86.20
14985;DHT22;7588;62.368;25.902;2023-04-06T07:53:30;9.90;85.80
14985;DHT22;7588;62.368;25.902;2023-04-06T07:55:57;9.90;82.20
14985;DHT22;7588;62.368;25.902;2023-04-06T07:58:23;9.90;81.90
14985;DHT22;7588;62.368;25.902;2023-04-06T08:00:49;9.90;81.70
14985;DHT22;7588;62.368;25.902;2023-04-06T08:03:14;10.00;80.10
14985;DHT22;7588;62.368;25.902;2023-04-06T08:05:42;10.30;80.80
14985;DHT22;7588;62.368;25.902;2023-04-06T08:08:08;10.60;78.70
14985;DHT22;7588;62.368;25.902;2023-04-06T08:10:33;10.90;77.70
14985;DHT22;7588;62.368;25.902;2023-04-06T08:13:00;10.90;75.40
14985;DHT22;7588;62.368;25.902;2023-04-06T08:15:26;11.00;74.10
14985;DHT22;7588;62.368;25.902;2023-04-06T08:17:51;10.80;74.00
14985;DHT22;7588;62.368;25.902;2023-04-06T08:20:17;11.00;71.80
14985;DHT22;7588;62.368;25.902;2023-04-06T08:22:43;10.90;73.40
14985;DHT22;7588;62.368;25.902;2023-04-06T08:25:09;11.20;71.70
14985;DHT22;7588;62.368;25.902;2023-04-06T08:27:34;11.30;71.30
14985;DHT22;7588;62.368;25.902;2023-04-06T08:30:00;11.70;72.30
14985;DHT22;7588;62.368;25.902;2023-04-06T08:32:26;11.80;68.90
14985;DHT22;7588;62.368;25.902;2023-04-06T08:34:55;12.00;68.40
14985;DHT22;7588;62.368;25.902;2023-04-06T08:37:21;12.00;67.70
14985;DHT22;7588;62.368;25.902;2023-04-06T08:39:47;11.90;67.40
14985;DHT22;7588;62.368;25.902;2023-04-06T08:42:20;12.00;69.60
14985;DHT22;7588;62.368;25.902;2023-04-06T08:44:47;12.10;67.40
14985;DHT22;7588;62.368;25.902;2023-04-06T08:47:14;12.30;65.70
14985;DHT22;7588;62.368;25.902;2023-04-06T08:49:40;12.00;64.90
14985;DHT22;7588;62.368;25.902;2023-04-06T08:52:07;11.80;65.70
14985;DHT22;7588;62.368;25.902;2023-04-06T08:54:37;11.90;64.50
14985;DHT22;7588;62.368;25.902;2023-04-06T08:57:03;12.00;66.60
14985;DHT22;7588;62.368;25.902;2023-04-06T08:59:31;12.40;63.50
14985;DHT22;7588;62.368;25.902;2023-04-06T09:01:57;12.40;61.90
14985;DHT22;7588;62.368;25.902;2023-04-06T09:04:23;12.50;63.30
14985;DHT22;7588;62.368;25.902;2023-04-06T09:06:48;12.70;63.80
14985;DHT22;7588;62.368;25.902;2023-04-06T09:09:15;12.60;62.60
14985;DHT22;7588;62.368;25.902;2023-04-06T09:11:44;12.70;62.30
14985;DHT22;7588;62.368;25.902;2023-04-06T09:14:11;12.80;62.30
14985;DHT22;7588;62.368;25.902;2023-04-06T09:16:44;12.80;62.10
14985;DHT22;7588;62.368;25.902;2023-04-06T09:19:13;12.70;59.40
14985;DHT22;7588;62.368;25.902;2023-04-06T09:21:39;12.90;60.20
14985;DHT22;7588;62.368;25.902;2023-04-06T09:24:07;13.10;60.80
14985;DHT22;7588;62.368;25.902;2023-04-06T09:26:43;13.10;59.40
14985;DHT22;7588;62.368;25.902;2023-04-06T09:29:09;12.90;60.90
14985;DHT22;7588;62.368;25.902;2023-04-06T09:31:35;13.10;63.60
14985;DHT22;7588;62.368;25.902;2023-04-06T09:34:01;13.40;60.20
14985;DHT22;7588;62.368;25.902;2023-04-06T09:36:37;13.60;61.50
14985;DHT22;7588;62.368;25.902;2023-04-06T09:39:07;13.80;59.70
14985;DHT22;7588;62.368;25.902;2023-04-06T09:41:34;13.50;59.20
14985;DHT22;7588;62.368;25.902;2023-04-06T09:44:11;13.60;62.40
14985;DHT22;7588;62.368;25.902;2023-04-06T09:46:39;13.80;60.30
14985;DHT22;7588;62.368;25.902;2023-04-06T09:49:05;14.20;58.80
14985;DHT22;7588;62.368;25.902;2023-04-06T09:52:08;14.20;57.30
14985;DHT22;7588;62.368;25.902;2023-04-06T09:54:29;14.10;59.50
14985;DHT22;7588;62.368;25.902;2023-04-06T09:57:18;14.10;58.90
14985;DHT22;7588;62.368;25.902;2023-04-06T10:02:56;14.10;59.70
14985;DHT22;7588;62.368;25.902;2023-04-06T10:08:08;14.30;57.30
14985;DHT22;7588;62.368;25.902;2023-04-06T10:10:34;14.10;55.90
14985;DHT22;7588;62.368;25.902;2023-04-06T10:13:00;14.20;57.00
14985;DHT22;7588;62.368;25.902;2023-04-06T10:15:28;14.00;58.40
14985;DHT22;7588;62.368;25.902;2023-04-06T10:17:54;14.20;59.40
14985;DHT22;7588;62.368;25.902;2023-04-06T10:20:38;14.70;57.80
14985;DHT22;7588;62.368;25.902;2023-04-06T10:25:34;14.50;56.70
14985;DHT22;7588;62.368;25.902;2023-04-06T10:28:07;14.60;56.60
14985;DHT22;7588;62.368;25.902;2023-04-06T10:30:34;14.60;56.40
14985;DHT22;7588;62.368;25.902;2023-04-06T10:33:01;14.60;54.10
14985;DHT22;7588;62.368;25.902;2023-04-06T10:35:37;14.70;57.00
14985;DHT22;7588;62.368;25.902;2023-04-06T10:38:04;15.00;55.80
14985;DHT22;7588;62.368;25.902;2023-04-06T10:40:31;15.00;56.70
14985;DHT22;7588;62.368;25.902;2023-04-06T10:43:11;15.20;55.20
14985;DHT22;7588;62.368;25.902;2023-04-06T10:45:37;15.40;54.50
14985;DHT22;7588;62.368;25.902;2023-04-06T10:48:18;15.40;55.50
14985;DHT22;7588;62.368;25.902;2023-04-06T10:50:49;15.50;53.70
14985;DHT22;7588;62.368;25.902;2023-04-06T10:53:25;15.50;54.40
14985;DHT22;7588;62.368;25.902;2023-04-06T10:55:55;15.40;53.50
14985;DHT22;7588;62.368;25.902;2023-04-06T10:58:24;15.00;56.10
14985;DHT22;7588;62.368;25.902;2023-04-06T11:00:51;15.10;54.60
14985;DHT22;7588;62.368;25.902;2023-04-06T11:03:17;15.20;55.60
14985;DHT22;7588;62.368;25.902;2023-04-06T11:05:50;15.20;54.70
14985;DHT22;7588;62.368;25.902;2023-04-06T11:08:24;15.20;55.30
14985;DHT22;7588;62.368;25.902;2023-04-06T11:10:50;15.40;55.20
14985;DHT22;7588;62.368;25.902;2023-04-06T11:13:16;15.40;54.90
14985;DHT22;7588;62.368;25.902;2023-04-06T11:15:42;15.50;55.00
14985;DHT22;7588;62.368;25.902;2023-04-06T11:18:08;15.50;55.50
14985;DHT22;7588;62.368;25.902;2023-04-06T11:20:34;15.70;54.60
14985;DHT22;7588;62.368;25.902;2023-04-06T11:23:00;15.80;53.90
14985;DHT22;7588;62.368;25.902;2023-04-06T11:25:27;16.00;54.20
14985;DHT22;7588;62.368;25.902;2023-04-06T11:27:53;15.80;53.20
14985;DHT22;7588;62.368;25.902;2023-04-06T11:30:19;15.70;53.50
14985;DHT22;7588;62.368;25.902;2023-04-06T11:32:45;15.60;53.70
14985;DHT22;7588;62.368;25.902;2023-04-06T11:35:22;15.70;54.60
14985;DHT22;7588;62.368;25.902;2023-04-06T11:37:49;15.90;53.50
14985;DHT22;7588;62.368;25.902;2023-04-06T11:40:15;16.00;53.40
14985;DHT22;7588;62.368;25.902;2023-04-06T11:42:41;16.00;52.90
14985;DHT22;7588;62.368;25.902;2023-04-06T11:45:15;16.00;53.20
14985;DHT22;7588;62.368;25.902;2023-04-06T11:47:41;16.00;53.30
14985;DHT22;7588;62.368;25.902;2023-04-06T11:50:11;16.00;52.60
14985;DHT22;7588;62.368;25.902;2023-04-06T11:52:39;15.90;54.50
14985;DHT22;7588;62.368;25.902;2023-04-06T11:55:18;16.20;53.00
14985;DHT22;7588;62.368;25.902;2023-04-06T11:57:44;16.20;52.50
14985;DHT22;7588;62.368;25.902;2023-04-06T12:00:11;16.20;53.80
14985;DHT22;7588;62.368;25.902;2023-04-06T12:02:38;16.30;52.90
14985;DHT22;7588;62.368;25.902;2023-04-06T12:05:04;16.30;53.60
14985;DHT22;7588;62.368;25.902;2023-04-06T12:07:31;16.60;53.30
14985;DHT22;7588;62.368;25.902;2023-04-06T12:10:01;16.40;54.50
14985;DHT22;7588;62.368;25.902;2023-04-06T12:12:27;16.90;51.90
14985;DHT22;7588;62.368;25.902;2023-04-06T12:14:53;16.90;51.90
14985;DHT22;7588;62.368;25.902;2023-04-06T12:17:19;16.90;52.20
14985;DHT22;7588;62.368;25.902;2023-04-06T12:19:45;16.70;51.60
14985;DHT22;7588;62.368;25.902;2023-04-06T12:22:11;16.70;51.40
14985;DHT22;7588;62.368;25.902;2023-04-06T12:24:37;16.50;51.80
14985;DHT22;7588;62.368;25.902;2023-04-06T12:27:03;16.70;51.30
14985;DHT22;7588;62.368;25.902;2023-04-06T12:29:29;16.60;52.20
14985;DHT22;7588;62.368;25.902;2023-04-06T12:31:54;16.80;52.10
14985;DHT22;7588;62.368;25.902;2023-04-06T12:34:20;16.90;50.70
14985;DHT22;7588;62.368;25.902;2023-04-06T12:36:46;16.90;51.50
14985;DHT22;7588;62.368;25.902;2023-04-06T12:39:11;16.80;51.40
14985;DHT22;7588;62.368;25.902;2023-04-06T12:41:37;16.70;51.30
14985;DHT22;7588;62.368;25.902;2023-04-06T12:44:05;16.60;50.00
14985;DHT22;7588;62.368;25.902;2023-04-06T12:46:31;16.70;51.30
14985;DHT22;7588;62.368;25.902;2023-04-06T12:48:58;16.70;50.10
14985;DHT22;7588;62.368;25.902;2023-04-06T12:51:27;16.60;51.10
14985;DHT22;7588;62.368;25.902;2023-04-06T12:53:53;16.40;50.80
14985;DHT22;7588;62.368;25.902;2023-04-06T12:56:19;16.40;51.70
14985;DHT22;7588;62.368;25.902;2023-04-06T12:58:46;16.60;51.10
14985;DHT22;7588;62.368;25.902;2023-04-06T13:01:13;16.70;52.10
14985;DHT22;7588;62.368;25.902;2023-04-06T13:03:41;16.80;50.60
14985;DHT22;7588;62.368;25.902;2023-04-06T13:06:07;16.80;50.30
14985;DHT22;7588;62.368;25.902;2023-04-06T13:08:37;16.70;50.50
14985;DHT22;7588;62.368;25.902;2023-04-06T13:11:04;16.60;50.00
14985;DHT22;7588;62.368;25.902;2023-04-06T13:13:31;16.70;49.70
14985;DHT22;7588;62.368;25.902;2023-04-06T13:16:05;16.50;50.30
14985;DHT22;7588;62.368;25.902;2023-04-06T13:18:31;16.50;48.60
14985;DHT22;7588;62.368;25.902;2023-04-06T13:20:58;16.10;49.50
14985;DHT22;7588;62.368;25.902;2023-04-06T13:23:25;15.80;50.10
14985;DHT22;7588;62.368;25.902;2023-04-06T13:26:17;15.40;50.30
14985;DHT22;7588;62.368;25.902;2023-04-06T13:28:43;14.90;50.60
14985;DHT22;7588;62.368;25.902;2023-04-06T13:31:08;14.20;51.50
14985;DHT22;7588;62.368;25.902;2023-04-06T13:33:35;13.70;52.50
14985;DHT22;7588;62.368;25.902;2023-04-06T13:36:01;13.30;53.60
14985;DHT22;7588;62.368;25.902;2023-04-06T13:38:27;12.90;53.70
14985;DHT22;7588;62.368;25.902;2023-04-06T13:40:53;12.80;54.10
14985;DHT22;7588;62.368;25.902;2023-04-06T13:43:19;12.50;54.60
14985;DHT22;7588;62.368;25.902;2023-04-06T13:45:50;12.30;54.80
14985;DHT22;7588;62.368;25.902;2023-04-06T13:48:16;12.10;55.30
14985;DHT22;7588;62.368;25.902;2023-04-06T13:50:42;11.90;56.00
14985;DHT22;7588;62.368;25.902;2023-04-06T13:53:08;11.70;55.70
14985;DHT22;7588;62.368;25.902;2023-04-06T13:55:34;11.60;56.60
14985;DHT22;7588;62.368;25.902;2023-04-06T13:57:59;11.40;56.20
14985;DHT22;7588;62.368;25.902;2023-04-06T14:00:25;11.20;56.80
14985;DHT22;7588;62.368;25.902;2023-04-06T14:02:53;11.20;56.80
14985;DHT22;7588;62.368;25.902;2023-04-06T14:05:20;11.10;57.20
14985;DHT22;7588;62.368;25.902;2023-04-06T14:07:46;11.10;56.80
14985;DHT22;7588;62.368;25.902;2023-04-06T14:10:11;10.90;57.00
14985;DHT22;7588;62.368;25.902;2023-04-06T14:12:43;10.90;57.70
14985;DHT22;7588;62.368;25.902;2023-04-06T14:15:11;10.80;58.10
14985;DHT22;7588;62.368;25.902;2023-04-06T14:17:37;10.60;58.30
14985;DHT22;7588;62.368;25.902;2023-04-06T14:20:07;10.60;58.30
14985;DHT22;7588;62.368;25.902;2023-04-06T14:22:33;10.50;59.10
14985;DHT22;7588;62.368;25.902;2023-04-06T14:24:59;10.40;59.00
14985;DHT22;7588;62.368;25.902;2023-04-06T14:27:25;10.40;58.80
14985;DHT22;7588;62.368;25.902;2023-04-06T14:29:51;10.30;59.00
14985;DHT22;7588;62.368;25.902;2023-04-06T14:32:19;10.20;59.50
14985;DHT22;7588;62.368;25.902;2023-04-06T14:34:45;10.20;59.60
14985;DHT22;7588;62.368;25.902;2023-04-06T14:37:10;10.20;59.40
14985;DHT22;7588;62.368;25.902;2023-04-06T14:39:36;10.20;59.60
14985;DHT22;7588;62.368;25.902;2023-04-06T14:42:02;10.20;59.80
14985;DHT22;7588;62.368;25.902;2023-04-06T14:44:28;10.10;60.00
14985;DHT22;7588;62.368;25.902;2023-04-06T14:46:53;10.20;59.60
14985;DHT22;7588;62.368;25.902;2023-04-06T14:49:19;10.20;60.40
14985;DHT22;7588;62.368;25.902;2023-04-06T14:51:45;10.20;59.70
14985;DHT22;7588;62.368;25.902;2023-04-06T14:54:10;10.20;60.20
14985;DHT22;7588;62.368;25.902;2023-04-06T14:56:36;10.10;60.90
14985;DHT22;7588;62.368;25.902;2023-04-06T14:59:03;10.00;60.70
14985;DHT22;7588;62.368;25.902;2023-04-06T15:01:33;10.00;61.00
14985;DHT22;7588;62.368;25.902;2023-04-06T15:03:58;10.00;61.10
14985;DHT22;7588;62.368;25.902;2023-04-06T15:06:24;9.90;62.30
14985;DHT22;7588;62.368;25.902;2023-04-06T15:08:51;9.90;62.10
14985;DHT22;7588;62.368;25.902;2023-04-06T15:11:16;9.80;62.20
14985;DHT22;7588;62.368;25.902;2023-04-06T15:13:42;9.80;61.90
14985;DHT22;7588;62.368;25.902;2023-04-06T15:16:08;9.70;63.20
14985;DHT22;7588;62.368;25.902;2023-04-06T15:18:34;9.70;62.80
14985;DHT22;7588;62.368;25.902;2023-04-06T15:21:01;9.70;63.60
14985;DHT22;7588;62.368;25.902;2023-04-06T15:23:27;9.80;63.00
14985;DHT22;7588;62.368;25.902;2023-04-06T15:25:55;9.90;62.80
14985;DHT22;7588;62.368;25.902;2023-04-06T15:28:21;10.10;62.30
14985;DHT22;7588;62.368;25.902;2023-04-06T15:30:46;10.00;61.50
14985;DHT22;7588;62.368;25.902;2023-04-06T15:33:12;10.00;61.40
14985;DHT22;7588;62.368;25.902;2023-04-06T15:35:38;10.10;61.30
14985;DHT22;7588;62.368;25.902;2023-04-06T15:38:05;10.20;61.00
14985;DHT22;7588;62.368;25.902;2023-04-06T15:40:32;10.30;61.00
14985;DHT22;7588;62.368;25.902;2023-04-06T15:42:57;10.30;61.30
14985;DHT22;7588;62.368;25.902;2023-04-06T15:45:23;10.10;61.50
14985;DHT22;7588;62.368;25.902;2023-04-06T15:47:49;10.00;61.90
14985;DHT22;7588;62.368;25.902;2023-04-06T15:50:15;9.80;64.00
14985;DHT22;7588;62.368;25.902;2023-04-06T15:52:41;9.80;64.00
14985;DHT22;7588;62.368;25.902;2023-04-06T15:55:07;9.70;64.30
14985;DHT22;7588;62.368;25.902;2023-04-06T15:57:33;9.60;64.60
14985;DHT22;7588;62.368;25.902;2023-04-06T15:59:59;9.50;65.20
14985;DHT22;7588;62.368;25.902;2023-04-06T16:02:26;9.40;65.80
14985;DHT22;7588;62.368;25.902;2023-04-06T16:04:55;9.20;66.20
14985;DHT22;7588;62.368;25.902;2023-04-06T16:07:21;9.20;66.50
14985;DHT22;7588;62.368;25.902;2023-04-06T16:09:49;9.00;66.50
14985;DHT22;7588;62.368;25.902;2023-04-06T16:12:14;9.00;67.30
14985;DHT22;7588;62.368;25.902;2023-04-06T16:14:40;8.80;67.30
14985;DHT22;7588;62.368;25.902;2023-04-06T16:17:06;8.70;68.10
14985;DHT22;7588;62.368;25.902;2023-04-06T16:19:31;8.60;68.70
14985;DHT22;7588;62.368;25.902;2023-04-06T16:21:57;8.50;68.60
14985;DHT22;7588;62.368;25.902;2023-04-06T16:24:23;8.40;69.40